createdAt,value
2019-02-06T00:03:00.581Z,102141.27
2019-02-06T00:09:13.801Z,102136.36
2019-02-06T00:15:19.771Z,102148.30
2019-02-06T00:21:25.795Z,102143.45
2019-02-06T00:27:32.119Z,102142.88
2019-02-06T00:33:38.435Z,102140.58
2019-02-06T00:39:44.138Z,102115.09
2019-02-06T00:45:50.199Z,102115.63
2019-02-06T00:51:55.960Z,102123.11
2019-02-06T00:58:01.701Z,102118.20
2019-02-06T01:04:07.674Z,102104.87
2019-02-06T01:10:14.734Z,102099.69
2019-02-06T01:16:20.537Z,102097.61
2019-02-06T01:22:26.347Z,102097.08
2019-02-06T01:28:32.391Z,102106.42
2019-02-06T01:34:38.326Z,102105.69
2019-02-06T01:40:44.436Z,102102.58
2019-02-06T01:46:50.190Z,102103.59
2019-02-06T01:52:56.189Z,102099.34
2019-02-06T01:59:02.045Z,102089.22
2019-02-06T02:05:08.215Z,102084.88
2019-02-06T02:11:14.712Z,102068.35
2019-02-06T02:17:20.539Z,102059.91
2019-02-06T02:23:26.335Z,102045.65
2019-02-06T02:29:32.563Z,102045.57
2019-02-06T02:35:38.620Z,102027.78
2019-02-06T02:41:44.884Z,102004.27
2019-02-06T02:47:51.112Z,102004.31
2019-02-06T02:53:57.495Z,101995.15
2019-02-06T03:00:03.883Z,101992.05
2019-02-06T03:06:10.008Z,101991.28
2019-02-06T03:12:15.913Z,101981.88
2019-02-06T03:18:21.654Z,101981.69
2019-02-06T03:24:27.403Z,101977.70
2019-02-06T03:30:33.429Z,101972.06
2019-02-06T03:36:40.885Z,101971.27
2019-02-06T03:42:47.072Z,101970.38
2019-02-06T03:48:54.109Z,101960.83
2019-02-06T03:54:59.903Z,101951.41
2019-02-06T04:01:05.727Z,101943.66
2019-02-06T04:07:11.948Z,101931.11
2019-02-06T04:13:17.703Z,101923.83
2019-02-06T04:19:23.491Z,101920.38
2019-02-06T04:25:29.484Z,101913.05
2019-02-06T04:31:35.448Z,101905.22
2019-02-06T04:37:43.574Z,101906.38
2019-02-06T04:43:49.345Z,101907.69
2019-02-06T04:49:55.519Z,101895.56
2019-02-06T04:56:01.342Z,101889.73
2019-02-06T05:02:07.426Z,101893.23
2019-02-06T05:08:13.310Z,101878.77
2019-02-06T05:14:19.045Z,101870.95
2019-02-06T05:20:50.018Z,101874.98
2019-02-06T05:27:05.495Z,101864.55
2019-02-06T05:33:11.966Z,101866.31
2019-02-06T05:39:17.841Z,101859.41
2019-02-06T05:45:23.623Z,101863.35
2019-02-06T05:51:29.461Z,101849.50
2019-02-06T05:57:35.292Z,101842.56
2019-02-06T06:03:41.714Z,101838.23
2019-02-06T06:09:48.029Z,101832.13
2019-02-06T06:15:53.956Z,101820.93
2019-02-06T06:22:00.023Z,101820.58
2019-02-06T06:28:06.476Z,101826.75
2019-02-06T06:34:12.619Z,101817.45
2019-02-06T06:40:21.454Z,101807.33
2019-02-06T06:46:27.353Z,101810.64
2019-02-06T06:52:33.106Z,101809.63
2019-02-06T06:58:38.874Z,101813.47
2019-02-06T07:04:45.049Z,101812.66
2019-02-06T07:10:51.093Z,101808.73
2019-02-06T07:16:57.210Z,101809.63
2019-02-06T07:23:03.277Z,101810.58
2019-02-06T07:29:09.362Z,101801.52
2019-02-06T07:35:15.253Z,101796.05
2019-02-06T07:41:21.352Z,101805.84
2019-02-06T07:47:27.346Z,101805.47
2019-02-06T07:53:33.312Z,101798.08
2019-02-06T07:59:39.193Z,101799.29
2019-02-06T08:05:45.508Z,101793.41
2019-02-06T08:11:51.938Z,101803.83
2019-02-06T08:17:57.867Z,101798.50
2019-02-06T08:24:03.707Z,101801.92
2019-02-06T08:30:16.164Z,101798.38
2019-02-06T08:36:22.071Z,101801.21
2019-02-06T08:42:28.169Z,101821.06
2019-02-06T08:48:34.419Z,101812.64
2019-02-06T08:54:40.296Z,101809.91
2019-02-06T09:00:46.589Z,101803.16
2019-02-06T09:06:53.145Z,101805.98
2019-02-06T09:12:59.243Z,101807.67
2019-02-06T09:19:05.348Z,101811.01
2019-02-06T09:25:13.204Z,101815.22
2019-02-06T09:31:19.508Z,101808.14
2019-02-06T09:37:25.520Z,101812.20
2019-02-06T09:43:31.420Z,101816.27
2019-02-06T09:49:37.186Z,101824.61
2019-02-06T09:55:43.136Z,101817.17
2019-02-06T10:01:49.050Z,101814.18
2019-02-06T10:07:55.130Z,101820.09
2019-02-06T10:14:01.165Z,101812.59
2019-02-06T10:20:11.299Z,101811.08
2019-02-06T10:26:17.303Z,101808.17
2019-02-06T10:32:23.145Z,101805.39
2019-02-06T10:38:29.638Z,101806.72
2019-02-06T10:44:35.795Z,101802.18
2019-02-06T10:50:48.547Z,101804.13
2019-02-06T10:56:54.823Z,101793.99
2019-02-06T11:03:00.689Z,101783.33
2019-02-06T11:09:08.960Z,101768.45
2019-02-06T11:15:15.403Z,101768.94
2019-02-06T11:21:21.316Z,101754.64
2019-02-06T11:27:27.136Z,101749.97
2019-02-06T11:33:33.185Z,101747.61
2019-02-06T11:39:39.220Z,101733.46
2019-02-06T11:45:45.222Z,101725.00
2019-02-06T11:51:50.984Z,101724.33
2019-02-06T11:57:56.894Z,101711.38
2019-02-06T12:04:03.498Z,101705.40
2019-02-06T12:10:13.287Z,101697.73
2019-02-06T12:16:19.221Z,101702.88
2019-02-06T12:22:25.337Z,101694.58
2019-02-06T12:28:31.051Z,101680.91
2019-02-06T12:34:36.855Z,101682.20
2019-02-06T12:40:43.016Z,101678.25
2019-02-06T12:46:48.748Z,101663.06
2019-02-06T12:52:57.277Z,101651.60
2019-02-06T12:59:02.009Z,101641.70
2019-02-06T13:05:08.459Z,101631.77
2019-02-06T13:11:14.525Z,101616.09
2019-02-06T13:17:20.347Z,101610.06
2019-02-06T13:23:26.173Z,101603.17
2019-02-06T13:29:32.329Z,101599.48
2019-02-06T13:35:38.804Z,101585.38
2019-02-06T13:41:45.251Z,101579.26
2019-02-06T13:47:51.104Z,101574.50
2019-02-06T13:53:56.962Z,101579.79
2019-02-06T14:00:02.904Z,101563.13
2019-02-06T14:06:11.260Z,101554.00
2019-02-06T14:12:16.603Z,101542.63
2019-02-06T14:18:22.334Z,101527.70
2019-02-06T14:25:10.006Z,101521.25
2019-02-06T14:32:05.579Z,101512.22
2019-02-06T14:39:21.368Z,101503.92
2019-02-06T14:46:32.221Z,101504.78
2019-02-06T14:53:55.148Z,101502.13
2019-02-06T15:01:13.738Z,101508.27
2019-02-06T15:07:53.374Z,101499.83
2019-02-06T15:14:47.951Z,101488.84
2019-02-06T15:21:45.361Z,101469.94
2019-02-06T15:28:59.374Z,101476.12
2019-02-06T15:36:06.425Z,101464.80
2019-02-06T15:43:27.404Z,101446.34
2019-02-06T15:50:29.180Z,101444.98
2019-02-06T15:57:20.215Z,101425.59
2019-02-06T16:04:54.102Z,101422.86
2019-02-06T16:11:42.351Z,101421.92
2019-02-06T16:18:27.791Z,101435.92
2019-02-06T16:25:08.399Z,101421.41
2019-02-06T16:32:05.497Z,101421.38
2019-02-06T16:38:58.343Z,101418.27
2019-02-06T16:46:13.698Z,101406.00
2019-02-06T16:52:45.165Z,101413.01
2019-02-06T16:59:50.382Z,101395.85
2019-02-06T17:06:49.150Z,101404.17
2019-02-06T17:13:48.436Z,101389.65
2019-02-06T17:21:06.385Z,101395.37
2019-02-06T17:27:56.660Z,101386.08
2019-02-06T17:34:49.476Z,101379.89
2019-02-06T17:41:22.474Z,101379.44
2019-02-06T17:48:03.473Z,101369.71
2019-02-06T17:55:16.627Z,101368.84
2019-02-06T18:01:49.535Z,101367.96
2019-02-06T18:07:55.717Z,101369.66
2019-02-06T18:14:01.980Z,101373.58
2019-02-06T18:20:11.490Z,101376.13
2019-02-06T18:26:17.370Z,101373.03
2019-02-06T18:32:27.562Z,101368.58
2019-02-06T18:38:33.401Z,101362.40
2019-02-06T18:44:40.639Z,101361.46
2019-02-06T18:50:46.625Z,101354.86
2019-02-06T18:56:52.803Z,101343.83
2019-02-06T19:02:58.855Z,101335.37
2019-02-06T19:09:09.958Z,101331.83
2019-02-06T19:15:17.769Z,101326.94
2019-02-06T19:21:24.110Z,101327.70
2019-02-06T19:27:30.005Z,101311.92
2019-02-06T19:33:35.921Z,101314.07
2019-02-06T19:39:43.645Z,101305.70
2019-02-06T19:45:50.153Z,101309.13
2019-02-06T19:51:56.150Z,101285.42
2019-02-06T19:58:02.309Z,101282.79
2019-02-06T20:04:08.610Z,101287.14
2019-02-06T20:10:19.740Z,101271.28
2019-02-06T20:16:25.963Z,101275.59
2019-02-06T20:22:32.370Z,101271.19
2019-02-06T20:28:38.375Z,101261.42
2019-02-06T20:34:44.300Z,101244.79
2019-02-06T20:40:50.147Z,101240.36
2019-02-06T20:46:56.182Z,101227.63
2019-02-06T20:53:02.199Z,101235.05
2019-02-06T20:59:08.292Z,101235.74
2019-02-06T21:05:14.885Z,101226.55
2019-02-06T21:11:21.190Z,101216.89
2019-02-06T21:17:27.294Z,101211.59
2019-02-06T21:23:33.350Z,101202.30
2019-02-06T21:29:39.552Z,101190.88
2019-02-06T21:35:45.610Z,101188.17
2019-02-06T21:41:51.402Z,101183.69
2019-02-06T21:47:57.589Z,101176.63
2019-02-06T21:54:03.487Z,101170.42
2019-02-06T22:00:32.482Z,101181.77
2019-02-06T22:06:38.531Z,101166.37
2019-02-06T22:12:44.438Z,101156.78
2019-02-06T22:18:52.077Z,101147.48
2019-02-06T22:24:57.853Z,101141.70
2019-02-06T22:31:03.589Z,101134.33
2019-02-06T22:37:09.379Z,101131.27
2019-02-06T22:43:15.357Z,101116.44
2019-02-06T22:49:21.515Z,101106.38
2019-02-06T22:55:27.701Z,101103.75
2019-02-06T23:01:45.951Z,101104.08
2019-02-06T23:07:51.625Z,101080.84
2019-02-06T23:13:57.609Z,101068.15
2019-02-06T23:20:03.498Z,101061.53
2019-02-06T23:26:09.781Z,101045.38
2019-02-06T23:32:15.629Z,101042.41
2019-02-06T23:38:21.388Z,101040.20
2019-02-06T23:44:29.203Z,101031.38
2019-02-06T23:50:35.295Z,101016.95
2019-02-06T23:56:41.263Z,101010.41
